Wright, Mississippi
Current Conditions -  °F | °C
As of 4:35 AM on Sunday 26 Oct 2014 (Local Time) from KRNV Reporting Station
Haze Haze  
Wind Chill: 60°   Ceiling: Unl
Heat Index: 60°   Visibility: 4mi
Dew Point: 60°   Wind: 3mph
Humidity: 100%   Direction: 210°SSW
Pressure: 30.01"   Gusts: NA
Location:  33.8277°N, 90.9559°W
Report Text: KRNV 260935Z AUTO 21003KT 4SM BR CLR 16/16 A3001 RMK AO2 T01580158
Loading
Personal Weather Stations






























Interactive Weather Map
Tropical Storm Tracking
New forecast layout! Learn more

10-Day Weather Forecast

Advertisements
Track Severe Weather on mobile